Telfer Mining Centre, Australia
Current Conditions -  °F | °C
As of 7:00 PM on Saturday 25 Oct 2014 (Local Time) from YNWN Reporting Station
Clear Clear  
Wind Chill: 91°   Ceiling: Unl
Heat Index: 91°   Visibility: NA
Dew Point: 25°   Wind: 9mph
Humidity: 9%   Direction: 230°SW
Pressure: 29.97"   Gusts: NA
Location:  21.71°S, 122.22°E
Report Text: YNWN 251100Z AUTO 23008KT //// // NCD 33/M04 Q1015
Loading
Personal Weather Stations






























Interactive Weather Map
Tropical Storm Tracking
New forecast layout! Learn more

10-Day Weather Forecast

Advertisements
Track Severe Weather on mobile